Boca Raton, FL

11:00 PM EST on February 28, 2015 (GMT -0500)
APRSWXNET Boca Raton FL US | Change Station
CLOSE
Current Station
Personal Weather Station
Location: Boca Raton, FL
Elevation: 14 ft
Nearby Weather Stations

Elev 14 ft 26.41 °N, 80.12 °W | Updated 27 minutes ago

Partly Cloudy
Partly Cloudy
74 °F
Feels Like 72 °F
N
5
Wind Variable Wind from ESE
Gusts 9.0 mph

Today
High -- | Low -- °F
--% Chance of Precip.
Yesterday
High -- | Low -- °F
Precip. -- in
6:45 AM 6:21 PM
Waxing Gibbous, 82% visible
Pressure 30.29 in
Visibility 8.0 miles
Clouds Scattered Clouds 1500 ft
Scattered Clouds 2300 ft
Heat Index 72 °F
Dew Point 72 °F
Humidity 92%
Rainfall 0.22 in
Snow Depth Not available.
UV 0 out of 12
Pollen 6.10 out of 12
Air Quality Not available.
Flu Activity Not available.
SPECI KPMP 010325Z AUTO 08011G20KT 8SM SCT015 SCT023 23/21 A3029 RMK AO2 T02330206

More Conditions Fewer Conditions

Pressure 30.29 in
Visibility 8.0 miles
Clouds Scattered Clouds 1500 ft
Scattered Clouds 2300 ft
Heat Index 72 °F
Dew Point 72 °F
Humidity 92%
Rainfall 0.22 in
Snow Depth Not available.
UV 0 out of 12
Pollen 6.10 out of 12
Air Quality Not available.
Flu Activity Not available.
SPECI KPMP 010325Z AUTO 08011G20KT 8SM SCT015 SCT023 23/21 A3029 RMK AO2 T02330206

More Conditions Fewer Conditions

Nowcast | as of 9:02 PM EST on February 28, 2015

Isolated showers continue to develop across Southeast Florida this evening. They are moving quickly to the west and will generally bring around a quarter of an inch of rain. Some localized areas may see a half of an inch of rain with any heavier showers. Shower activity should slow down by around midnight.

×

10-Day Weather Forecast

Almanac

Astronomy

Feb. 28, 2015 Rise Set
Actual Time
Civil Twilight
Nautical Twilight
Astronomical Twilight
Moon
Length of Visible Light
Length of Day
Tomorrow will be .
, % of the Moon is Illuminated

Today's Extremes

State Highs State Lows

Community

WunderPhotos

Upload Photos

1,801,308 photos uploaded!

WunderBlogs® & News

Nearby

Air Quality

  Air Quality AQ Index Pollutant
Not available.

Snow Depth

Station Depth Elevation

Earthquake Activity

City Distance Mag. Time & Date
Minimum magnitude displayed is 2.5.

Coastal Water Temperatures

Place Temperature

Nearby Weather Stations